This is the latest recevied weather packets stored in our database for station/object WX6YYZ. If no packets are shown the sender has not sent any weather packets the latest 10 day(s).
| Time | Temp. | Humidity | Pressure | Rain* | Wind** | Luminosity | Snow |
|---|---|---|---|---|---|---|---|
| 1777315287 | 17.22° C | 47% | 1017.3 hPa | 0 mm | - | - | - |
| 1777314685 | 16.67° C | 48% | 1017.3 hPa | 0 mm | - | - | - |
| 1777313782 | 15.56° C | 50% | 1017.3 hPa | 0 mm | - | - | - |
| 1777312579 | 15° C | 53% | 1017.3 hPa | 0 mm | - | - | - |
| 1777312278 | 15° C | 51% | 1017.3 hPa | 0 mm | - | - | - |
| 1777310711 | 14.44° C | 49% | 1017.3 hPa | 0 mm | - | - | - |
| 1777310410 | 15° C | 50% | 1017.3 hPa | 0 mm | - | - | - |
| 1777309809 | 15° C | 47% | 1016.9 hPa | 0 mm | - | - | - |
| 1777308844 | 14.44° C | 46% | 1016.9 hPa | 0 mm | - | - | - |
| 1777306121 | 13.89° C | 73% | 1016.6 hPa | 0 mm | - | - | - |
| 1777303951 | 13.33° C | 76% | 1016.6 hPa | 0 mm | - | - | - |
| 1777303318 | 12.78° C | 77% | 1016.6 hPa | 0 mm | - | - | - |
| 1777301148 | 12.22° C | 80% | 1016.6 hPa | 0 mm | - | - | - |
| 1777295513 | 10.56° C | 86% | 1015.6 hPa | 0 mm | - | - | - |
| 1777292241 | 11.11° C | 85% | 1015.6 hPa | 0 mm | - | - | - |
| 1777285194 | 11.67° C | 79% | 1015.6 hPa | 0 mm | - | - | - |
| 1777281852 | 11.67° C | 78% | 1015.9 hPa | 0 mm | - | - | - |
| 1777280347 | 11.67° C | 78% | 1016.3 hPa | 0 mm | - | - | - |
| 1777279444 | 11.11° C | 79% | 1016.3 hPa | 0 mm | - | - | - |
| 1777277940 | 11.11° C | 78% | 1016.6 hPa | 0 mm | - | - | - |
| 1777275044 | 11.67° C | 79% | 1016.6 hPa | 0 mm | - | - | - |
| 1777274743 | 11.67° C | 79% | 1016.6 hPa | 0 mm | - | - | - |
| 1777273477 | 11.67° C | 78% | 1016.6 hPa | 0 mm | - | - | - |
| 1777272498 | 11.67° C | 78% | 1016.6 hPa | 0 mm | - | - | - |
| 1777268586 | 11.11° C | 78% | 1016.3 hPa | 0 mm | - | - | - |
* Rain latest hour (hover to see other rain measurements)
** Current wind speed in m/s (hover to see current wind gust speed)